sensor_id;sensor_type;location;lat;lon;timestamp;P1;durP1;ratioP1;P2;durP2;ratioP2
22184;SDS011;11258;52.516;13.318;2024-03-23T00:53:32;14.00;;;2.60;;
22184;SDS011;11258;52.516;13.318;2024-03-23T00:55:58;13.67;;;2.53;;
22184;SDS011;11258;52.516;13.318;2024-03-23T00:58:24;15.53;;;2.77;;
22184;SDS011;11258;52.516;13.318;2024-03-23T01:00:50;11.50;;;2.40;;
22184;SDS011;11258;52.516;13.318;2024-03-23T01:03:16;6.87;;;2.90;;
22184;SDS011;11258;52.516;13.318;2024-03-23T01:05:42;13.43;;;2.80;;
22184;SDS011;11258;52.516;13.318;2024-03-23T01:08:08;13.67;;;2.50;;
22184;SDS011;11258;52.516;13.318;2024-03-23T01:10:34;13.33;;;2.70;;
22184;SDS011;11258;52.516;13.318;2024-03-23T01:13:00;14.83;;;3.40;;
22184;SDS011;11258;52.516;13.318;2024-03-23T01:15:27;8.93;;;2.57;;
22184;SDS011;11258;52.516;13.318;2024-03-23T01:17:53;11.90;;;2.20;;
22184;SDS011;11258;52.516;13.318;2024-03-23T01:20:19;10.87;;;2.33;;
22184;SDS011;11258;52.516;13.318;2024-03-23T01:22:45;9.73;;;2.97;;
22184;SDS011;11258;52.516;13.318;2024-03-23T01:25:11;9.47;;;1.97;;
22184;SDS011;11258;52.516;13.318;2024-03-23T01:27:37;9.27;;;2.47;;
22184;SDS011;11258;52.516;13.318;2024-03-23T01:30:03;6.47;;;2.67;;
22184;SDS011;11258;52.516;13.318;2024-03-23T01:32:29;8.50;;;2.43;;
22184;SDS011;11258;52.516;13.318;2024-03-23T01:34:55;7.97;;;2.23;;
22184;SDS011;11258;52.516;13.318;2024-03-23T01:37:21;12.93;;;2.73;;
22184;SDS011;11258;52.516;13.318;2024-03-23T01:39:47;10.30;;;2.33;;
22184;SDS011;11258;52.516;13.318;2024-03-23T01:42:13;14.47;;;2.67;;
22184;SDS011;11258;52.516;13.318;2024-03-23T01:44:39;11.87;;;2.70;;
22184;SDS011;11258;52.516;13.318;2024-03-23T01:47:06;9.10;;;2.30;;
22184;SDS011;11258;52.516;13.318;2024-03-23T01:49:32;8.60;;;2.93;;
22184;SDS011;11258;52.516;13.318;2024-03-23T01:51:58;8.33;;;2.30;;
22184;SDS011;11258;52.516;13.318;2024-03-23T01:54:25;11.20;;;2.63;;
22184;SDS011;11258;52.516;13.318;2024-03-23T01:56:51;12.33;;;2.87;;
22184;SDS011;11258;52.516;13.318;2024-03-23T01:59:17;10.27;;;2.80;;
22184;SDS011;11258;52.516;13.318;2024-03-23T02:01:43;14.27;;;2.80;;
22184;SDS011;11258;52.516;13.318;2024-03-23T02:04:09;9.67;;;2.30;;
22184;SDS011;11258;52.516;13.318;2024-03-23T02:06:35;7.03;;;2.60;;
22184;SDS011;11258;52.516;13.318;2024-03-23T02:09:01;10.50;;;3.17;;
22184;SDS011;11258;52.516;13.318;2024-03-23T02:11:27;15.47;;;2.50;;
22184;SDS011;11258;52.516;13.318;2024-03-23T02:13:53;8.60;;;2.30;;
22184;SDS011;11258;52.516;13.318;2024-03-23T02:16:19;9.27;;;2.10;;
22184;SDS011;11258;52.516;13.318;2024-03-23T02:18:45;8.37;;;2.20;;
22184;SDS011;11258;52.516;13.318;2024-03-23T02:21:11;13.57;;;2.63;;
22184;SDS011;11258;52.516;13.318;2024-03-23T02:23:37;11.30;;;2.83;;
22184;SDS011;11258;52.516;13.318;2024-03-23T02:26:03;8.70;;;2.13;;
22184;SDS011;11258;52.516;13.318;2024-03-23T02:28:29;12.03;;;2.37;;
22184;SDS011;11258;52.516;13.318;2024-03-23T02:30:55;11.13;;;2.70;;
22184;SDS011;11258;52.516;13.318;2024-03-23T02:33:21;8.10;;;2.50;;
22184;SDS011;11258;52.516;13.318;2024-03-23T02:35:48;8.27;;;2.43;;
22184;SDS011;11258;52.516;13.318;2024-03-23T02:38:14;5.73;;;1.73;;
22184;SDS011;11258;52.516;13.318;2024-03-23T02:40:40;11.47;;;2.30;;
22184;SDS011;11258;52.516;13.318;2024-03-23T02:43:06;10.70;;;2.50;;
22184;SDS011;11258;52.516;13.318;2024-03-23T02:45:32;10.87;;;3.10;;
22184;SDS011;11258;52.516;13.318;2024-03-23T02:47:58;9.70;;;2.73;;
22184;SDS011;11258;52.516;13.318;2024-03-23T02:50:24;12.77;;;3.10;;
22184;SDS011;11258;52.516;13.318;2024-03-23T02:52:50;13.97;;;3.60;;
22184;SDS011;11258;52.516;13.318;2024-03-23T02:55:16;9.93;;;2.27;;
22184;SDS011;11258;52.516;13.318;2024-03-23T02:57:42;10.77;;;2.53;;
22184;SDS011;11258;52.516;13.318;2024-03-23T03:00:08;11.40;;;2.40;;
22184;SDS011;11258;52.516;13.318;2024-03-23T03:02:35;7.13;;;1.97;;
22184;SDS011;11258;52.516;13.318;2024-03-23T03:05:02;6.67;;;1.87;;
22184;SDS011;11258;52.516;13.318;2024-03-23T03:07:30;12.73;;;2.40;;
22184;SDS011;11258;52.516;13.318;2024-03-23T03:09:56;12.77;;;3.10;;
22184;SDS011;11258;52.516;13.318;2024-03-23T03:12:22;11.30;;;2.70;;
22184;SDS011;11258;52.516;13.318;2024-03-23T03:14:48;10.50;;;2.17;;
22184;SDS011;11258;52.516;13.318;2024-03-23T03:17:14;10.27;;;2.50;;
22184;SDS011;11258;52.516;13.318;2024-03-23T03:19:40;8.70;;;2.20;;
22184;SDS011;11258;52.516;13.318;2024-03-23T03:22:06;13.80;;;2.97;;
22184;SDS011;11258;52.516;13.318;2024-03-23T03:24:32;12.30;;;2.93;;
22184;SDS011;11258;52.516;13.318;2024-03-23T03:26:58;11.27;;;2.27;;
22184;SDS011;11258;52.516;13.318;2024-03-23T03:29:24;9.50;;;2.10;;
22184;SDS011;11258;52.516;13.318;2024-03-23T03:31:50;12.47;;;2.93;;
22184;SDS011;11258;52.516;13.318;2024-03-23T03:34:16;9.00;;;2.70;;
22184;SDS011;11258;52.516;13.318;2024-03-23T03:36:42;10.73;;;3.37;;
22184;SDS011;11258;52.516;13.318;2024-03-23T03:39:08;9.00;;;2.27;;
22184;SDS011;11258;52.516;13.318;2024-03-23T03:41:35;6.97;;;2.83;;
22184;SDS011;11258;52.516;13.318;2024-03-23T03:44:01;13.30;;;3.93;;
22184;SDS011;11258;52.516;13.318;2024-03-23T03:46:30;11.27;;;2.47;;
22184;SDS011;11258;52.516;13.318;2024-03-23T03:48:56;7.63;;;2.23;;
22184;SDS011;11258;52.516;13.318;2024-03-23T03:51:22;7.67;;;3.20;;
22184;SDS011;11258;52.516;13.318;2024-03-23T03:53:48;6.57;;;2.33;;
22184;SDS011;11258;52.516;13.318;2024-03-23T03:56:14;4.47;;;1.80;;
22184;SDS011;11258;52.516;13.318;2024-03-23T03:58:40;7.07;;;1.90;;
22184;SDS011;11258;52.516;13.318;2024-03-23T04:01:06;7.43;;;1.80;;
22184;SDS011;11258;52.516;13.318;2024-03-23T04:03:32;6.30;;;2.20;;
22184;SDS011;11258;52.516;13.318;2024-03-23T04:05:58;9.43;;;2.00;;
22184;SDS011;11258;52.516;13.318;2024-03-23T04:08:24;8.17;;;1.60;;
22184;SDS011;11258;52.516;13.318;2024-03-23T04:10:50;8.47;;;1.90;;
22184;SDS011;11258;52.516;13.318;2024-03-23T04:13:16;11.80;;;2.90;;
22184;SDS011;11258;52.516;13.318;2024-03-23T04:15:42;7.80;;;2.00;;
22184;SDS011;11258;52.516;13.318;2024-03-23T04:18:08;4.27;;;1.67;;
22184;SDS011;11258;52.516;13.318;2024-03-23T04:20:34;5.87;;;1.90;;
22184;SDS011;11258;52.516;13.318;2024-03-23T04:23:00;8.53;;;1.70;;
22184;SDS011;11258;52.516;13.318;2024-03-23T04:25:26;5.23;;;1.40;;
22184;SDS011;11258;52.516;13.318;2024-03-23T04:27:52;8.83;;;1.77;;
22184;SDS011;11258;52.516;13.318;2024-03-23T04:30:18;8.50;;;1.80;;
22184;SDS011;11258;52.516;13.318;2024-03-23T04:32:44;7.97;;;0.93;;
22184;SDS011;11258;52.516;13.318;2024-03-23T04:35:10;2.83;;;1.30;;
22184;SDS011;11258;52.516;13.318;2024-03-23T04:37:37;4.03;;;1.40;;
22184;SDS011;11258;52.516;13.318;2024-03-23T04:40:05;10.47;;;1.93;;
22184;SDS011;11258;52.516;13.318;2024-03-23T04:42:32;6.63;;;1.37;;
22184;SDS011;11258;52.516;13.318;2024-03-23T04:44:58;3.63;;;1.17;;
22184;SDS011;11258;52.516;13.318;2024-03-23T04:47:24;3.33;;;1.10;;
22184;SDS011;11258;52.516;13.318;2024-03-23T04:49:50;3.63;;;1.20;;
22184;SDS011;11258;52.516;13.318;2024-03-23T04:52:17;5.93;;;1.37;;
22184;SDS011;11258;52.516;13.318;2024-03-23T04:54:43;3.20;;;1.20;;
22184;SDS011;11258;52.516;13.318;2024-03-23T04:57:10;7.87;;;1.87;;
22184;SDS011;11258;52.516;13.318;2024-03-23T04:59:36;9.45;;;1.92;;
22184;SDS011;11258;52.516;13.318;2024-03-23T05:02:02;6.70;;;1.40;;
22184;SDS011;11258;52.516;13.318;2024-03-23T05:04:28;5.27;;;1.53;;
22184;SDS011;11258;52.516;13.318;2024-03-23T05:06:54;5.93;;;1.67;;
22184;SDS011;11258;52.516;13.318;2024-03-23T05:09:20;15.17;;;1.80;;
22184;SDS011;11258;52.516;13.318;2024-03-23T05:11:46;9.37;;;1.90;;
22184;SDS011;11258;52.516;13.318;2024-03-23T05:14:15;9.27;;;1.47;;
22184;SDS011;11258;52.516;13.318;2024-03-23T05:16:41;6.90;;;1.80;;
22184;SDS011;11258;52.516;13.318;2024-03-23T05:19:07;6.50;;;1.53;;
22184;SDS011;11258;52.516;13.318;2024-03-23T05:21:33;4.70;;;1.20;;
22184;SDS011;11258;52.516;13.318;2024-03-23T05:23:59;11.03;;;2.47;;
22184;SDS011;11258;52.516;13.318;2024-03-23T05:26:25;3.90;;;1.50;;
22184;SDS011;11258;52.516;13.318;2024-03-23T05:28:51;5.93;;;1.50;;
22184;SDS011;11258;52.516;13.318;2024-03-23T05:31:27;2.50;;;1.07;;
22184;SDS011;11258;52.516;13.318;2024-03-23T05:33:53;6.90;;;1.67;;
22184;SDS011;11258;52.516;13.318;2024-03-23T05:36:19;4.57;;;1.27;;
22184;SDS011;11258;52.516;13.318;2024-03-23T05:38:45;2.43;;;1.10;;
22184;SDS011;11258;52.516;13.318;2024-03-23T05:41:11;3.37;;;1.40;;
22184;SDS011;11258;52.516;13.318;2024-03-23T05:43:37;6.73;;;1.30;;
22184;SDS011;11258;52.516;13.318;2024-03-23T05:46:03;2.77;;;1.10;;
22184;SDS011;11258;52.516;13.318;2024-03-23T05:48:30;4.60;;;1.17;;
22184;SDS011;11258;52.516;13.318;2024-03-23T05:50:56;1.97;;;1.10;;
22184;SDS011;11258;52.516;13.318;2024-03-23T05:53:23;5.60;;;1.53;;
22184;SDS011;11258;52.516;13.318;2024-03-23T05:55:49;5.20;;;1.30;;
22184;SDS011;11258;52.516;13.318;2024-03-23T05:58:16;7.43;;;1.80;;
22184;SDS011;11258;52.516;13.318;2024-03-23T06:00:42;4.47;;;1.73;;
22184;SDS011;11258;52.516;13.318;2024-03-23T06:03:08;5.53;;;1.43;;
22184;SDS011;11258;52.516;13.318;2024-03-23T06:05:38;8.23;;;1.60;;
22184;SDS011;11258;52.516;13.318;2024-03-23T06:08:04;6.83;;;1.80;;
22184;SDS011;11258;52.516;13.318;2024-03-23T06:10:30;2.70;;;1.30;;
22184;SDS011;11258;52.516;13.318;2024-03-23T06:12:56;5.90;;;1.60;;
22184;SDS011;11258;52.516;13.318;2024-03-23T06:15:24;3.13;;;1.10;;
22184;SDS011;11258;52.516;13.318;2024-03-23T06:17:50;5.90;;;1.50;;
22184;SDS011;11258;52.516;13.318;2024-03-23T06:20:16;8.17;;;1.90;;
22184;SDS011;11258;52.516;13.318;2024-03-23T06:22:42;6.73;;;1.73;;
22184;SDS011;11258;52.516;13.318;2024-03-23T06:25:08;7.60;;;2.27;;
22184;SDS011;11258;52.516;13.318;2024-03-23T06:27:34;3.50;;;1.20;;
22184;SDS011;11258;52.516;13.318;2024-03-23T06:30:00;7.70;;;1.70;;
22184;SDS011;11258;52.516;13.318;2024-03-23T06:32:27;6.17;;;1.67;;
22184;SDS011;11258;52.516;13.318;2024-03-23T06:34:56;5.97;;;1.93;;
22184;SDS011;11258;52.516;13.318;2024-03-23T06:37:22;9.13;;;1.80;;
22184;SDS011;11258;52.516;13.318;2024-03-23T06:39:48;4.33;;;1.70;;
22184;SDS011;11258;52.516;13.318;2024-03-23T06:42:14;3.67;;;1.70;;
22184;SDS011;11258;52.516;13.318;2024-03-23T06:44:40;4.90;;;1.50;;
22184;SDS011;11258;52.516;13.318;2024-03-23T06:47:06;5.37;;;1.50;;
22184;SDS011;11258;52.516;13.318;2024-03-23T06:49:32;3.57;;;1.70;;
22184;SDS011;11258;52.516;13.318;2024-03-23T06:51:58;3.87;;;1.63;;
22184;SDS011;11258;52.516;13.318;2024-03-23T06:54:26;4.07;;;1.67;;
22184;SDS011;11258;52.516;13.318;2024-03-23T06:56:52;7.10;;;1.73;;
22184;SDS011;11258;52.516;13.318;2024-03-23T06:59:18;3.50;;;1.30;;
22184;SDS011;11258;52.516;13.318;2024-03-23T07:01:44;3.30;;;1.20;;
22184;SDS011;11258;52.516;13.318;2024-03-23T07:04:10;5.53;;;2.20;;
22184;SDS011;11258;52.516;13.318;2024-03-23T07:06:42;6.37;;;1.70;;
22184;SDS011;11258;52.516;13.318;2024-03-23T07:09:08;4.80;;;1.27;;
22184;SDS011;11258;52.516;13.318;2024-03-23T07:11:35;3.90;;;1.23;;
22184;SDS011;11258;52.516;13.318;2024-03-23T07:14:01;5.63;;;1.53;;
22184;SDS011;11258;52.516;13.318;2024-03-23T07:16:27;2.93;;;0.80;;
22184;SDS011;11258;52.516;13.318;2024-03-23T07:18:54;3.53;;;1.50;;
22184;SDS011;11258;52.516;13.318;2024-03-23T07:21:20;4.57;;;1.33;;
22184;SDS011;11258;52.516;13.318;2024-03-23T07:23:47;6.67;;;1.60;;
22184;SDS011;11258;52.516;13.318;2024-03-23T07:26:13;5.03;;;1.17;;
22184;SDS011;11258;52.516;13.318;2024-03-23T07:28:39;5.30;;;1.40;;
22184;SDS011;11258;52.516;13.318;2024-03-23T07:31:09;4.67;;;2.03;;
22184;SDS011;11258;52.516;13.318;2024-03-23T07:33:36;3.17;;;0.80;;
22184;SDS011;11258;52.516;13.318;2024-03-23T07:36:03;3.33;;;1.87;;
22184;SDS011;11258;52.516;13.318;2024-03-23T07:38:31;6.77;;;1.50;;
22184;SDS011;11258;52.516;13.318;2024-03-23T07:41:04;3.63;;;1.13;;
22184;SDS011;11258;52.516;13.318;2024-03-23T07:43:30;2.80;;;1.77;;
22184;SDS011;11258;52.516;13.318;2024-03-23T07:45:56;6.63;;;1.43;;
22184;SDS011;11258;52.516;13.318;2024-03-23T07:48:22;5.80;;;1.10;;
22184;SDS011;11258;52.516;13.318;2024-03-23T07:53:29;5.60;;;1.17;;
22184;SDS011;11258;52.516;13.318;2024-03-23T07:55:59;8.10;;;1.53;;
22184;SDS011;11258;52.516;13.318;2024-03-23T07:58:26;6.13;;;1.40;;
22184;SDS011;11258;52.516;13.318;2024-03-23T08:00:55;7.37;;;1.43;;
22184;SDS011;11258;52.516;13.318;2024-03-23T08:03:21;6.27;;;1.70;;
22184;SDS011;11258;52.516;13.318;2024-03-23T08:05:47;3.90;;;1.83;;
22184;SDS011;11258;52.516;13.318;2024-03-23T08:08:14;2.77;;;1.13;;
22184;SDS011;11258;52.516;13.318;2024-03-23T08:10:50;8.17;;;1.50;;
22184;SDS011;11258;52.516;13.318;2024-03-23T08:13:16;5.30;;;1.23;;
22184;SDS011;11258;52.516;13.318;2024-03-23T08:15:42;4.00;;;1.20;;
22184;SDS011;11258;52.516;13.318;2024-03-23T08:18:09;6.17;;;1.97;;
22184;SDS011;11258;52.516;13.318;2024-03-23T08:20:35;4.77;;;1.73;;
22184;SDS011;11258;52.516;13.318;2024-03-23T08:23:01;5.53;;;2.10;;
22184;SDS011;11258;52.516;13.318;2024-03-23T08:25:27;2.87;;;1.60;;
22184;SDS011;11258;52.516;13.318;2024-03-23T08:27:53;6.57;;;1.70;;
22184;SDS011;11258;52.516;13.318;2024-03-23T08:30:19;3.93;;;1.77;;
22184;SDS011;11258;52.516;13.318;2024-03-23T08:32:45;8.00;;;2.70;;
22184;SDS011;11258;52.516;13.318;2024-03-23T08:35:11;6.47;;;1.67;;
22184;SDS011;11258;52.516;13.318;2024-03-23T08:37:37;5.03;;;1.67;;
22184;SDS011;11258;52.516;13.318;2024-03-23T08:40:03;2.17;;;1.40;;
22184;SDS011;11258;52.516;13.318;2024-03-23T08:42:30;7.53;;;1.43;;
22184;SDS011;11258;52.516;13.318;2024-03-23T08:44:56;4.53;;;2.90;;
22184;SDS011;11258;52.516;13.318;2024-03-23T08:47:22;4.63;;;1.47;;
22184;SDS011;11258;52.516;13.318;2024-03-23T08:49:47;5.10;;;1.73;;
22184;SDS011;11258;52.516;13.318;2024-03-23T08:52:14;4.30;;;1.63;;
22184;SDS011;11258;52.516;13.318;2024-03-23T08:54:40;6.33;;;1.77;;
22184;SDS011;11258;52.516;13.318;2024-03-23T08:57:06;4.80;;;1.17;;
22184;SDS011;11258;52.516;13.318;2024-03-23T08:59:33;3.17;;;1.23;;
22184;SDS011;11258;52.516;13.318;2024-03-23T09:01:59;4.37;;;1.03;;
22184;SDS011;11258;52.516;13.318;2024-03-23T09:04:25;3.73;;;1.23;;
22184;SDS011;11258;52.516;13.318;2024-03-23T09:06:51;3.03;;;1.23;;
22184;SDS011;11258;52.516;13.318;2024-03-23T09:09:17;4.63;;;1.30;;
22184;SDS011;11258;52.516;13.318;2024-03-23T09:11:45;6.20;;;1.73;;
22184;SDS011;11258;52.516;13.318;2024-03-23T09:14:11;3.60;;;1.57;;
22184;SDS011;11258;52.516;13.318;2024-03-23T09:16:37;3.67;;;0.83;;
22184;SDS011;11258;52.516;13.318;2024-03-23T09:19:03;5.27;;;1.50;;
22184;SDS011;11258;52.516;13.318;2024-03-23T09:21:29;4.87;;;1.97;;
22184;SDS011;11258;52.516;13.318;2024-03-23T09:23:55;1.50;;;1.00;;
22184;SDS011;11258;52.516;13.318;2024-03-23T09:26:21;5.37;;;1.17;;
22184;SDS011;11258;52.516;13.318;2024-03-23T09:28:50;4.93;;;1.17;;
22184;SDS011;11258;52.516;13.318;2024-03-23T09:31:16;4.53;;;2.13;;
22184;SDS011;11258;52.516;13.318;2024-03-23T09:33:43;7.30;;;1.00;;
22184;SDS011;11258;52.516;13.318;2024-03-23T09:36:09;3.70;;;1.93;;
22184;SDS011;11258;52.516;13.318;2024-03-23T09:38:35;3.23;;;1.17;;
22184;SDS011;11258;52.516;13.318;2024-03-23T09:41:06;2.33;;;1.50;;
22184;SDS011;11258;52.516;13.318;2024-03-23T09:43:32;3.67;;;1.27;;
22184;SDS011;11258;52.516;13.318;2024-03-23T09:45:58;6.13;;;1.60;;
22184;SDS011;11258;52.516;13.318;2024-03-23T09:48:24;5.63;;;1.63;;
22184;SDS011;11258;52.516;13.318;2024-03-23T09:50:51;10.33;;;1.57;;
22184;SDS011;11258;52.516;13.318;2024-03-23T09:53:17;5.30;;;2.17;;
22184;SDS011;11258;52.516;13.318;2024-03-23T09:55:43;6.37;;;1.90;;
22184;SDS011;11258;52.516;13.318;2024-03-23T09:58:14;5.77;;;1.17;;
22184;SDS011;11258;52.516;13.318;2024-03-23T10:00:40;4.40;;;1.90;;
22184;SDS011;11258;52.516;13.318;2024-03-23T10:03:06;6.33;;;1.27;;
22184;SDS011;11258;52.516;13.318;2024-03-23T10:05:33;3.57;;;0.97;;
22184;SDS011;11258;52.516;13.318;2024-03-23T10:08:00;5.20;;;1.53;;
22184;SDS011;11258;52.516;13.318;2024-03-23T10:10:26;2.50;;;1.13;;
22184;SDS011;11258;52.516;13.318;2024-03-23T10:12:52;4.63;;;1.53;;
22184;SDS011;11258;52.516;13.318;2024-03-23T10:15:18;4.30;;;1.50;;
22184;SDS011;11258;52.516;13.318;2024-03-23T10:17:45;3.87;;;1.87;;
22184;SDS011;11258;52.516;13.318;2024-03-23T10:20:11;4.23;;;1.30;;
22184;SDS011;11258;52.516;13.318;2024-03-23T10:22:37;3.30;;;1.60;;
22184;SDS011;11258;52.516;13.318;2024-03-23T10:25:07;4.40;;;1.50;;
22184;SDS011;11258;52.516;13.318;2024-03-23T10:27:33;7.83;;;2.30;;
22184;SDS011;11258;52.516;13.318;2024-03-23T10:30:07;3.83;;;1.30;;
22184;SDS011;11258;52.516;13.318;2024-03-23T10:32:33;5.03;;;1.60;;
22184;SDS011;11258;52.516;13.318;2024-03-23T10:37:41;5.30;;;1.77;;
22184;SDS011;11258;52.516;13.318;2024-03-23T10:40:09;5.73;;;1.70;;
22184;SDS011;11258;52.516;13.318;2024-03-23T10:42:36;5.80;;;1.33;;
22184;SDS011;11258;52.516;13.318;2024-03-23T10:45:03;6.40;;;1.60;;
22184;SDS011;11258;52.516;13.318;2024-03-23T10:47:29;9.17;;;1.60;;
22184;SDS011;11258;52.516;13.318;2024-03-23T10:49:56;7.53;;;1.43;;
22184;SDS011;11258;52.516;13.318;2024-03-23T10:52:22;4.10;;;1.57;;
22184;SDS011;11258;52.516;13.318;2024-03-23T10:54:48;4.10;;;1.30;;
22184;SDS011;11258;52.516;13.318;2024-03-23T10:57:23;7.60;;;1.50;;
22184;SDS011;11258;52.516;13.318;2024-03-23T10:59:51;2.83;;;1.10;;
22184;SDS011;11258;52.516;13.318;2024-03-23T11:02:21;8.23;;;2.20;;
22184;SDS011;11258;52.516;13.318;2024-03-23T11:04:47;7.87;;;1.63;;
22184;SDS011;11258;52.516;13.318;2024-03-23T11:07:31;3.80;;;1.50;;
22184;SDS011;11258;52.516;13.318;2024-03-23T11:09:57;6.40;;;1.30;;
22184;SDS011;11258;52.516;13.318;2024-03-23T11:14:50;3.33;;;1.87;;
22184;SDS011;11258;52.516;13.318;2024-03-23T11:17:20;3.57;;;1.57;;
22184;SDS011;11258;52.516;13.318;2024-03-23T11:25:12;4.70;;;2.37;;
22184;SDS011;11258;52.516;13.318;2024-03-23T11:27:38;3.53;;;1.20;;
22184;SDS011;11258;52.516;13.318;2024-03-23T11:32:39;6.37;;;1.30;;
22184;SDS011;11258;52.516;13.318;2024-03-23T11:35:06;2.83;;;1.10;;
22184;SDS011;11258;52.516;13.318;2024-03-23T11:37:32;2.30;;;1.03;;
22184;SDS011;11258;52.516;13.318;2024-03-23T11:39:58;4.40;;;1.37;;
22184;SDS011;11258;52.516;13.318;2024-03-23T11:42:25;4.90;;;1.20;;
22184;SDS011;11258;52.516;13.318;2024-03-23T11:44:51;5.60;;;1.30;;
22184;SDS011;11258;52.516;13.318;2024-03-23T11:47:17;7.27;;;1.30;;
22184;SDS011;11258;52.516;13.318;2024-03-23T11:49:43;5.23;;;1.10;;
22184;SDS011;11258;52.516;13.318;2024-03-23T11:52:09;6.00;;;1.63;;
22184;SDS011;11258;52.516;13.318;2024-03-23T11:54:35;3.57;;;1.53;;
22184;SDS011;11258;52.516;13.318;2024-03-23T11:57:04;2.40;;;1.13;;
22184;SDS011;11258;52.516;13.318;2024-03-23T11:59:34;3.50;;;1.27;;
22184;SDS011;11258;52.516;13.318;2024-03-23T12:02:04;3.87;;;1.27;;
22184;SDS011;11258;52.516;13.318;2024-03-23T12:04:31;8.03;;;1.80;;
22184;SDS011;11258;52.516;13.318;2024-03-23T12:07:16;4.00;;;1.40;;
22184;SDS011;11258;52.516;13.318;2024-03-23T12:09:46;4.87;;;1.47;;
22184;SDS011;11258;52.516;13.318;2024-03-23T12:12:16;2.27;;;1.23;;
22184;SDS011;11258;52.516;13.318;2024-03-23T12:14:43;7.87;;;1.50;;
22184;SDS011;11258;52.516;13.318;2024-03-23T12:17:13;6.37;;;1.60;;
22184;SDS011;11258;52.516;13.318;2024-03-23T12:19:39;3.60;;;1.30;;
22184;SDS011;11258;52.516;13.318;2024-03-23T12:22:06;5.53;;;1.73;;
22184;SDS011;11258;52.516;13.318;2024-03-23T12:24:33;2.27;;;1.00;;
22184;SDS011;11258;52.516;13.318;2024-03-23T12:27:03;10.27;;;2.57;;
22184;SDS011;11258;52.516;13.318;2024-03-23T12:29:32;7.07;;;2.00;;
22184;SDS011;11258;52.516;13.318;2024-03-23T12:32:01;4.43;;;1.70;;
22184;SDS011;11258;52.516;13.318;2024-03-23T12:34:28;3.50;;;1.30;;
22184;SDS011;11258;52.516;13.318;2024-03-23T12:36:55;4.93;;;1.10;;
22184;SDS011;11258;52.516;13.318;2024-03-23T12:39:21;2.67;;;1.13;;
22184;SDS011;11258;52.516;13.318;2024-03-23T12:41:48;4.10;;;0.90;;
22184;SDS011;11258;52.516;13.318;2024-03-23T12:44:14;2.73;;;1.30;;
22184;SDS011;11258;52.516;13.318;2024-03-23T12:46:40;5.03;;;1.67;;
22184;SDS011;11258;52.516;13.318;2024-03-23T12:49:06;3.50;;;1.67;;
22184;SDS011;11258;52.516;13.318;2024-03-23T12:51:33;3.03;;;1.17;;
22184;SDS011;11258;52.516;13.318;2024-03-23T12:53:59;1.00;;;0.63;;
22184;SDS011;11258;52.516;13.318;2024-03-23T12:56:25;4.20;;;1.27;;
22184;SDS011;11258;52.516;13.318;2024-03-23T12:58:53;7.30;;;1.50;;
22184;SDS011;11258;52.516;13.318;2024-03-23T13:01:20;4.90;;;1.40;;
22184;SDS011;11258;52.516;13.318;2024-03-23T13:03:46;2.10;;;1.50;;
22184;SDS011;11258;52.516;13.318;2024-03-23T13:06:13;6.60;;;1.73;;
22184;SDS011;11258;52.516;13.318;2024-03-23T13:08:39;3.30;;;1.37;;
22184;SDS011;11258;52.516;13.318;2024-03-23T13:11:08;7.50;;;1.90;;
22184;SDS011;11258;52.516;13.318;2024-03-23T13:13:35;4.60;;;1.17;;
22184;SDS011;11258;52.516;13.318;2024-03-23T13:16:01;6.20;;;1.50;;
22184;SDS011;11258;52.516;13.318;2024-03-23T13:18:28;3.77;;;1.20;;
22184;SDS011;11258;52.516;13.318;2024-03-23T13:20:54;7.93;;;1.80;;
22184;SDS011;11258;52.516;13.318;2024-03-23T13:23:20;7.97;;;2.23;;
22184;SDS011;11258;52.516;13.318;2024-03-23T13:25:50;5.27;;;1.50;;
22184;SDS011;11258;52.516;13.318;2024-03-23T13:28:17;5.57;;;1.43;;
22184;SDS011;11258;52.516;13.318;2024-03-23T13:30:53;5.00;;;1.97;;
22184;SDS011;11258;52.516;13.318;2024-03-23T13:33:19;3.53;;;1.50;;
22184;SDS011;11258;52.516;13.318;2024-03-23T13:35:52;4.50;;;1.53;;
22184;SDS011;11258;52.516;13.318;2024-03-23T13:38:18;5.33;;;1.17;;
22184;SDS011;11258;52.516;13.318;2024-03-23T13:43:16;5.90;;;2.00;;
22184;SDS011;11258;52.516;13.318;2024-03-23T13:45:42;2.50;;;1.43;;
22184;SDS011;11258;52.516;13.318;2024-03-23T13:48:08;4.30;;;1.50;;
22184;SDS011;11258;52.516;13.318;2024-03-23T13:50:34;7.27;;;1.70;;
22184;SDS011;11258;52.516;13.318;2024-03-23T13:53:00;11.33;;;2.07;;
22184;SDS011;11258;52.516;13.318;2024-03-23T13:55:26;7.17;;;1.77;;
22184;SDS011;11258;52.516;13.318;2024-03-23T13:57:52;6.07;;;1.90;;
22184;SDS011;11258;52.516;13.318;2024-03-23T14:00:18;4.63;;;1.90;;
22184;SDS011;11258;52.516;13.318;2024-03-23T14:02:45;5.17;;;2.20;;
22184;SDS011;11258;52.516;13.318;2024-03-23T14:05:11;7.20;;;2.10;;
22184;SDS011;11258;52.516;13.318;2024-03-23T14:07:37;6.43;;;2.13;;
22184;SDS011;11258;52.516;13.318;2024-03-23T14:10:03;8.77;;;2.13;;
22184;SDS011;11258;52.516;13.318;2024-03-23T14:12:31;3.23;;;1.87;;
22184;SDS011;11258;52.516;13.318;2024-03-23T14:14:57;5.73;;;1.63;;
22184;SDS011;11258;52.516;13.318;2024-03-23T14:17:24;6.50;;;1.47;;
22184;SDS011;11258;52.516;13.318;2024-03-23T14:19:51;8.17;;;2.17;;
22184;SDS011;11258;52.516;13.318;2024-03-23T14:22:17;4.07;;;1.80;;
22184;SDS011;11258;52.516;13.318;2024-03-23T14:24:47;4.97;;;1.93;;
22184;SDS011;11258;52.516;13.318;2024-03-23T14:27:13;5.80;;;1.90;;
22184;SDS011;11258;52.516;13.318;2024-03-23T14:29:39;7.80;;;2.00;;
22184;SDS011;11258;52.516;13.318;2024-03-23T14:32:05;7.70;;;2.13;;
22184;SDS011;11258;52.516;13.318;2024-03-23T14:34:32;7.47;;;1.60;;
22184;SDS011;11258;52.516;13.318;2024-03-23T14:36:58;3.33;;;1.80;;
22184;SDS011;11258;52.516;13.318;2024-03-23T14:39:25;5.20;;;2.07;;
22184;SDS011;11258;52.516;13.318;2024-03-23T14:41:50;4.33;;;1.67;;
22184;SDS011;11258;52.516;13.318;2024-03-23T14:44:16;5.40;;;1.70;;
22184;SDS011;11258;52.516;13.318;2024-03-23T14:46:42;6.47;;;1.70;;
22184;SDS011;11258;52.516;13.318;2024-03-23T14:49:09;6.70;;;2.70;;
22184;SDS011;11258;52.516;13.318;2024-03-23T14:51:35;10.13;;;2.17;;
22184;SDS011;11258;52.516;13.318;2024-03-23T14:54:01;6.10;;;3.50;;
22184;SDS011;11258;52.516;13.318;2024-03-23T14:56:28;3.80;;;1.83;;
22184;SDS011;11258;52.516;13.318;2024-03-23T14:58:54;2.63;;;1.17;;
22184;SDS011;11258;52.516;13.318;2024-03-23T15:01:21;5.13;;;2.17;;
22184;SDS011;11258;52.516;13.318;2024-03-23T15:03:47;11.17;;;2.17;;
22184;SDS011;11258;52.516;13.318;2024-03-23T15:06:13;4.73;;;2.03;;
22184;SDS011;11258;52.516;13.318;2024-03-23T15:08:39;8.90;;;1.93;;
22184;SDS011;11258;52.516;13.318;2024-03-23T15:11:06;6.50;;;1.70;;
22184;SDS011;11258;52.516;13.318;2024-03-23T15:13:35;4.80;;;1.17;;
22184;SDS011;11258;52.516;13.318;2024-03-23T15:16:01;3.37;;;1.20;;
22184;SDS011;11258;52.516;13.318;2024-03-23T15:18:29;5.97;;;1.57;;
22184;SDS011;11258;52.516;13.318;2024-03-23T15:20:55;3.13;;;1.53;;
22184;SDS011;11258;52.516;13.318;2024-03-23T15:23:22;3.70;;;1.33;;
22184;SDS011;11258;52.516;13.318;2024-03-23T15:25:58;2.93;;;1.20;;
22184;SDS011;11258;52.516;13.318;2024-03-23T15:28:24;2.83;;;1.40;;
22184;SDS011;11258;52.516;13.318;2024-03-23T15:30:52;2.97;;;1.30;;
22184;SDS011;11258;52.516;13.318;2024-03-23T15:33:18;2.67;;;0.90;;
22184;SDS011;11258;52.516;13.318;2024-03-23T15:35:44;1.97;;;0.90;;
22184;SDS011;11258;52.516;13.318;2024-03-23T15:38:10;3.87;;;1.30;;
22184;SDS011;11258;52.516;13.318;2024-03-23T15:40:36;4.00;;;1.17;;